sensor_id;sensor_type;location;lat;lon;timestamp;temperature;humidity
8172;DHT22;4127;47.908;10.850;2022-12-10T00:01:10;0.80;99.90
8172;DHT22;4127;47.908;10.850;2022-12-10T00:03:37;0.70;99.90
8172;DHT22;4127;47.908;10.850;2022-12-10T00:06:09;0.50;99.90
8172;DHT22;4127;47.908;10.850;2022-12-10T00:08:36;0.20;99.90
8172;DHT22;4127;47.908;10.850;2022-12-10T00:11:04;0.20;99.90
8172;DHT22;4127;47.908;10.850;2022-12-10T00:13:32;0.20;99.90
8172;DHT22;4127;47.908;10.850;2022-12-10T00:16:00;0.40;99.90
8172;DHT22;4127;47.908;10.850;2022-12-10T00:18:27;0.50;99.90
8172;DHT22;4127;47.908;10.850;2022-12-10T00:20:54;0.60;99.90
8172;DHT22;4127;47.908;10.850;2022-12-10T00:23:21;0.70;99.90
8172;DHT22;4127;47.908;10.850;2022-12-10T00:25:49;0.80;99.90
8172;DHT22;4127;47.908;10.850;2022-12-10T00:28:16;0.80;99.90
8172;DHT22;4127;47.908;10.850;2022-12-10T00:30:42;0.80;99.90
8172;DHT22;4127;47.908;10.850;2022-12-10T00:33:09;0.80;99.90
8172;DHT22;4127;47.908;10.850;2022-12-10T00:35:36;0.80;99.90
8172;DHT22;4127;47.908;10.850;2022-12-10T00:38:04;0.80;99.90
8172;DHT22;4127;47.908;10.850;2022-12-10T00:40:32;0.80;99.90
8172;DHT22;4127;47.908;10.850;2022-12-10T00:42:59;0.70;99.90
8172;DHT22;4127;47.908;10.850;2022-12-10T00:45:25;0.70;99.90
8172;DHT22;4127;47.908;10.850;2022-12-10T00:47:52;0.70;99.90
8172;DHT22;4127;47.908;10.850;2022-12-10T00:50:19;0.70;99.90
8172;DHT22;4127;47.908;10.850;2022-12-10T00:52:45;0.60;99.90
8172;DHT22;4127;47.908;10.850;2022-12-10T00:55:12;0.50;99.90
8172;DHT22;4127;47.908;10.850;2022-12-10T00:57:39;0.40;99.90
8172;DHT22;4127;47.908;10.850;2022-12-10T01:00:06;0.50;99.90
8172;DHT22;4127;47.908;10.850;2022-12-10T01:02:34;0.60;99.90
8172;DHT22;4127;47.908;10.850;2022-12-10T01:05:00;0.60;99.90
8172;DHT22;4127;47.908;10.850;2022-12-10T01:07:27;0.70;99.90
8172;DHT22;4127;47.908;10.850;2022-12-10T01:09:54;0.70;99.90
8172;DHT22;4127;47.908;10.850;2022-12-10T01:12:21;0.70;99.90
8172;DHT22;4127;47.908;10.850;2022-12-10T01:14:47;0.50;99.90
8172;DHT22;4127;47.908;10.850;2022-12-10T01:17:14;0.40;99.90
8172;DHT22;4127;47.908;10.850;2022-12-10T01:19:41;0.40;99.90
8172;DHT22;4127;47.908;10.850;2022-12-10T01:22:07;0.30;99.90
8172;DHT22;4127;47.908;10.850;2022-12-10T01:24:34;0.30;99.90
8172;DHT22;4127;47.908;10.850;2022-12-10T01:27:01;0.40;99.90
8172;DHT22;4127;47.908;10.850;2022-12-10T01:29:28;0.40;99.90
8172;DHT22;4127;47.908;10.850;2022-12-10T01:31:57;0.40;99.90
8172;DHT22;4127;47.908;10.850;2022-12-10T01:34:24;0.40;99.90
8172;DHT22;4127;47.908;10.850;2022-12-10T01:36:53;0.30;99.90
8172;DHT22;4127;47.908;10.850;2022-12-10T01:39:21;0.20;99.90
8172;DHT22;4127;47.908;10.850;2022-12-10T01:46:51;0.20;99.90
8172;DHT22;4127;47.908;10.850;2022-12-10T01:49:19;0.20;99.90
8172;DHT22;4127;47.908;10.850;2022-12-10T01:51:49;0.30;99.90
8172;DHT22;4127;47.908;10.850;2022-12-10T01:54:43;0.30;99.90
8172;DHT22;4127;47.908;10.850;2022-12-10T01:57:36;0.20;99.90
8172;DHT22;4127;47.908;10.850;2022-12-10T02:00:05;0.20;99.90
8172;DHT22;4127;47.908;10.850;2022-12-10T02:02:53;0.30;99.90
8172;DHT22;4127;47.908;10.850;2022-12-10T02:05:42;0.30;99.90
8172;DHT22;4127;47.908;10.850;2022-12-10T02:08:18;0.30;99.90
8172;DHT22;4127;47.908;10.850;2022-12-10T02:11:35;0.20;99.90
8172;DHT22;4127;47.908;10.850;2022-12-10T02:14:19;0.20;99.90
8172;DHT22;4127;47.908;10.850;2022-12-10T02:16:57;0.20;99.90
8172;DHT22;4127;47.908;10.850;2022-12-10T02:22:06;0.20;99.90
8172;DHT22;4127;47.908;10.850;2022-12-10T02:24:36;0.20;99.90
8172;DHT22;4127;47.908;10.850;2022-12-10T02:29:40;0.20;99.90
8172;DHT22;4127;47.908;10.850;2022-12-10T02:32:12;0.20;99.90
8172;DHT22;4127;47.908;10.850;2022-12-10T02:34:54;0.20;99.90
8172;DHT22;4127;47.908;10.850;2022-12-10T02:37:34;0.10;99.90
8172;DHT22;4127;47.908;10.850;2022-12-10T02:40:06;0.00;99.90
8172;DHT22;4127;47.908;10.850;2022-12-10T02:42:38;0.10;99.90
8172;DHT22;4127;47.908;10.850;2022-12-10T02:45:07;0.00;99.90
8172;DHT22;4127;47.908;10.850;2022-12-10T02:47:35;0.10;99.90
8172;DHT22;4127;47.908;10.850;2022-12-10T02:50:03;0.10;99.90
8172;DHT22;4127;47.908;10.850;2022-12-10T02:52:31;0.20;99.90
8172;DHT22;4127;47.908;10.850;2022-12-10T02:54:58;0.10;99.90
8172;DHT22;4127;47.908;10.850;2022-12-10T02:57:29;0.20;99.90
8172;DHT22;4127;47.908;10.850;2022-12-10T03:05:47;0.20;99.90
8172;DHT22;4127;47.908;10.850;2022-12-10T03:08:23;0.10;99.90
8172;DHT22;4127;47.908;10.850;2022-12-10T03:13:34;0.20;99.90
8172;DHT22;4127;47.908;10.850;2022-12-10T03:16:02;0.20;99.90
8172;DHT22;4127;47.908;10.850;2022-12-10T03:18:33;0.10;99.90
8172;DHT22;4127;47.908;10.850;2022-12-10T03:21:04;0.10;99.90
8172;DHT22;4127;47.908;10.850;2022-12-10T03:23:34;0.00;99.90
8172;DHT22;4127;47.908;10.850;2022-12-10T03:26:03;0.00;99.90
8172;DHT22;4127;47.908;10.850;2022-12-10T03:28:37;0.00;99.90
8172;DHT22;4127;47.908;10.850;2022-12-10T03:31:04;-0.10;99.90
8172;DHT22;4127;47.908;10.850;2022-12-10T03:33:33;-0.10;99.90
8172;DHT22;4127;47.908;10.850;2022-12-10T03:36:00;-0.10;99.90
8172;DHT22;4127;47.908;10.850;2022-12-10T03:38:27;-0.10;99.90
8172;DHT22;4127;47.908;10.850;2022-12-10T03:40:54;-0.10;99.90
8172;DHT22;4127;47.908;10.850;2022-12-10T03:43:21;-0.10;99.90
8172;DHT22;4127;47.908;10.850;2022-12-10T03:45:48;0.00;99.90
8172;DHT22;4127;47.908;10.850;2022-12-10T03:48:15;0.00;99.90
8172;DHT22;4127;47.908;10.850;2022-12-10T03:50:42;0.00;99.90
8172;DHT22;4127;47.908;10.850;2022-12-10T03:53:08;0.10;99.90
8172;DHT22;4127;47.908;10.850;2022-12-10T03:55:35;0.20;99.90
8172;DHT22;4127;47.908;10.850;2022-12-10T03:58:02;0.20;99.90
8172;DHT22;4127;47.908;10.850;2022-12-10T04:00:29;0.10;99.90
8172;DHT22;4127;47.908;10.850;2022-12-10T04:02:55;0.10;99.90
8172;DHT22;4127;47.908;10.850;2022-12-10T04:05:22;0.10;99.90
8172;DHT22;4127;47.908;10.850;2022-12-10T04:07:49;0.10;99.90
8172;DHT22;4127;47.908;10.850;2022-12-10T04:10:15;-0.10;99.90
8172;DHT22;4127;47.908;10.850;2022-12-10T04:12:42;0.10;99.90
8172;DHT22;4127;47.908;10.850;2022-12-10T04:15:09;0.00;99.90
8172;DHT22;4127;47.908;10.850;2022-12-10T04:17:54;-0.10;99.90
8172;DHT22;4127;47.908;10.850;2022-12-10T04:20:21;-0.10;99.90
8172;DHT22;4127;47.908;10.850;2022-12-10T04:23:07;-0.10;99.90
8172;DHT22;4127;47.908;10.850;2022-12-10T04:25:53;-0.10;99.90
8172;DHT22;4127;47.908;10.850;2022-12-10T04:28:38;-0.10;99.90
8172;DHT22;4127;47.908;10.850;2022-12-10T04:31:05;-0.10;99.90
8172;DHT22;4127;47.908;10.850;2022-12-10T04:33:32;0.00;99.90
8172;DHT22;4127;47.908;10.850;2022-12-10T04:35:58;0.00;99.90
8172;DHT22;4127;47.908;10.850;2022-12-10T04:38:25;0.00;99.90
8172;DHT22;4127;47.908;10.850;2022-12-10T04:40:52;-0.10;99.90
8172;DHT22;4127;47.908;10.850;2022-12-10T04:43:18;0.00;99.90
8172;DHT22;4127;47.908;10.850;2022-12-10T04:45:45;0.00;99.90
8172;DHT22;4127;47.908;10.850;2022-12-10T04:48:12;0.00;99.90
8172;DHT22;4127;47.908;10.850;2022-12-10T04:50:39;0.00;99.90
8172;DHT22;4127;47.908;10.850;2022-12-10T04:53:05;-0.10;99.90
8172;DHT22;4127;47.908;10.850;2022-12-10T04:55:32;-0.10;99.90
8172;DHT22;4127;47.908;10.850;2022-12-10T04:57:59;0.00;99.90
8172;DHT22;4127;47.908;10.850;2022-12-10T05:00:26;0.10;99.90
8172;DHT22;4127;47.908;10.850;2022-12-10T05:02:53;0.00;99.90
8172;DHT22;4127;47.908;10.850;2022-12-10T05:05:20;0.10;99.90
8172;DHT22;4127;47.908;10.850;2022-12-10T05:07:46;0.10;99.90
8172;DHT22;4127;47.908;10.850;2022-12-10T05:10:13;0.00;99.90
8172;DHT22;4127;47.908;10.850;2022-12-10T05:12:40;0.10;99.90
8172;DHT22;4127;47.908;10.850;2022-12-10T05:15:07;0.00;99.90
8172;DHT22;4127;47.908;10.850;2022-12-10T05:17:34;0.00;99.90
8172;DHT22;4127;47.908;10.850;2022-12-10T05:20:01;0.00;99.90
8172;DHT22;4127;47.908;10.850;2022-12-10T05:22:27;0.00;99.90
8172;DHT22;4127;47.908;10.850;2022-12-10T05:25:13;0.00;99.90
8172;DHT22;4127;47.908;10.850;2022-12-10T05:27:39;0.00;99.90
8172;DHT22;4127;47.908;10.850;2022-12-10T05:30:07;0.00;99.90
8172;DHT22;4127;47.908;10.850;2022-12-10T05:32:35;-0.10;99.90
8172;DHT22;4127;47.908;10.850;2022-12-10T05:35:01;-0.10;99.90
8172;DHT22;4127;47.908;10.850;2022-12-10T05:37:28;-0.10;99.90
8172;DHT22;4127;47.908;10.850;2022-12-10T05:39:55;-0.10;99.90
8172;DHT22;4127;47.908;10.850;2022-12-10T05:42:22;-0.10;99.90
8172;DHT22;4127;47.908;10.850;2022-12-10T05:44:49;-0.10;99.90
8172;DHT22;4127;47.908;10.850;2022-12-10T05:47:15;-0.10;99.90
8172;DHT22;4127;47.908;10.850;2022-12-10T05:49:42;0.00;99.90
8172;DHT22;4127;47.908;10.850;2022-12-10T05:52:16;0.00;99.90
8172;DHT22;4127;47.908;10.850;2022-12-10T05:54:42;-0.10;99.90
8172;DHT22;4127;47.908;10.850;2022-12-10T05:57:09;-0.10;99.90
8172;DHT22;4127;47.908;10.850;2022-12-10T05:59:36;-0.10;99.90
8172;DHT22;4127;47.908;10.850;2022-12-10T06:02:03;-0.10;99.90
8172;DHT22;4127;47.908;10.850;2022-12-10T06:04:29;-0.10;99.90
8172;DHT22;4127;47.908;10.850;2022-12-10T06:06:56;-0.10;99.90
8172;DHT22;4127;47.908;10.850;2022-12-10T06:09:23;-0.10;99.90
8172;DHT22;4127;47.908;10.850;2022-12-10T06:11:49;-0.10;99.90
8172;DHT22;4127;47.908;10.850;2022-12-10T06:14:16;-0.20;99.90
8172;DHT22;4127;47.908;10.850;2022-12-10T06:16:43;-0.10;99.90
8172;DHT22;4127;47.908;10.850;2022-12-10T06:19:10;-0.10;99.90
8172;DHT22;4127;47.908;10.850;2022-12-10T06:21:37;-0.10;99.90
8172;DHT22;4127;47.908;10.850;2022-12-10T06:24:04;-0.10;99.90
8172;DHT22;4127;47.908;10.850;2022-12-10T06:26:31;-0.10;99.90
8172;DHT22;4127;47.908;10.850;2022-12-10T06:28:58;-0.10;99.90
8172;DHT22;4127;47.908;10.850;2022-12-10T06:31:24;-0.10;99.90
8172;DHT22;4127;47.908;10.850;2022-12-10T06:33:51;-0.10;99.90
8172;DHT22;4127;47.908;10.850;2022-12-10T06:36:22;-0.20;99.90
8172;DHT22;4127;47.908;10.850;2022-12-10T06:38:49;-0.20;99.90
8172;DHT22;4127;47.908;10.850;2022-12-10T06:41:17;-0.20;99.90
8172;DHT22;4127;47.908;10.850;2022-12-10T06:43:45;-0.20;99.90
8172;DHT22;4127;47.908;10.850;2022-12-10T06:46:14;-0.10;99.90
8172;DHT22;4127;47.908;10.850;2022-12-10T06:48:43;-0.10;99.90
8172;DHT22;4127;47.908;10.850;2022-12-10T06:51:11;-0.10;99.90
8172;DHT22;4127;47.908;10.850;2022-12-10T06:53:41;-0.10;99.90
8172;DHT22;4127;47.908;10.850;2022-12-10T06:56:12;-0.10;99.90
8172;DHT22;4127;47.908;10.850;2022-12-10T06:58:39;-0.10;99.90
8172;DHT22;4127;47.908;10.850;2022-12-10T07:01:11;-0.10;99.90
8172;DHT22;4127;47.908;10.850;2022-12-10T07:03:42;-0.10;99.90
8172;DHT22;4127;47.908;10.850;2022-12-10T07:06:10;0.10;99.90
8172;DHT22;4127;47.908;10.850;2022-12-10T07:08:37;-0.10;99.90
8172;DHT22;4127;47.908;10.850;2022-12-10T07:11:08;0.00;99.90
8172;DHT22;4127;47.908;10.850;2022-12-10T07:13:39;0.00;99.90
8172;DHT22;4127;47.908;10.850;2022-12-10T07:16:36;-0.10;99.90
8172;DHT22;4127;47.908;10.850;2022-12-10T07:19:36;0.10;99.90
8172;DHT22;4127;47.908;10.850;2022-12-10T07:22:03;0.10;99.90
8172;DHT22;4127;47.908;10.850;2022-12-10T07:24:31;0.00;99.90
8172;DHT22;4127;47.908;10.850;2022-12-10T07:27:00;0.00;99.90
8172;DHT22;4127;47.908;10.850;2022-12-10T07:29:27;0.00;99.90
8172;DHT22;4127;47.908;10.850;2022-12-10T07:32:01;0.00;99.90
8172;DHT22;4127;47.908;10.850;2022-12-10T07:34:28;0.00;99.90
8172;DHT22;4127;47.908;10.850;2022-12-10T07:36:55;0.00;99.90
8172;DHT22;4127;47.908;10.850;2022-12-10T07:39:23;0.00;99.90
8172;DHT22;4127;47.908;10.850;2022-12-10T07:41:51;0.00;99.90
8172;DHT22;4127;47.908;10.850;2022-12-10T07:44:20;0.10;99.90
8172;DHT22;4127;47.908;10.850;2022-12-10T07:46:49;0.10;99.90
8172;DHT22;4127;47.908;10.850;2022-12-10T07:49:16;0.10;99.90
8172;DHT22;4127;47.908;10.850;2022-12-10T07:51:49;0.10;99.90
8172;DHT22;4127;47.908;10.850;2022-12-10T07:54:17;0.10;99.90
8172;DHT22;4127;47.908;10.850;2022-12-10T07:56:45;-0.10;99.90
8172;DHT22;4127;47.908;10.850;2022-12-10T07:59:12;0.00;99.90
8172;DHT22;4127;47.908;10.850;2022-12-10T08:01:40;0.00;99.90
8172;DHT22;4127;47.908;10.850;2022-12-10T08:04:07;0.00;99.90
8172;DHT22;4127;47.908;10.850;2022-12-10T08:06:34;0.00;99.90
8172;DHT22;4127;47.908;10.850;2022-12-10T08:09:01;0.00;99.90
8172;DHT22;4127;47.908;10.850;2022-12-10T08:11:28;-0.10;99.90
8172;DHT22;4127;47.908;10.850;2022-12-10T08:13:55;-0.10;99.90
8172;DHT22;4127;47.908;10.850;2022-12-10T08:16:25;0.00;99.90
8172;DHT22;4127;47.908;10.850;2022-12-10T08:18:54;0.10;99.90
8172;DHT22;4127;47.908;10.850;2022-12-10T08:21:23;0.00;99.90
8172;DHT22;4127;47.908;10.850;2022-12-10T08:23:50;-0.10;99.90
8172;DHT22;4127;47.908;10.850;2022-12-10T08:26:20;-0.10;99.90
8172;DHT22;4127;47.908;10.850;2022-12-10T08:28:48;-0.20;99.90
8172;DHT22;4127;47.908;10.850;2022-12-10T08:31:17;-0.10;99.90
8172;DHT22;4127;47.908;10.850;2022-12-10T08:33:44;-0.10;99.90
8172;DHT22;4127;47.908;10.850;2022-12-10T08:36:13;-0.10;99.90
8172;DHT22;4127;47.908;10.850;2022-12-10T08:38:41;-0.10;99.90
8172;DHT22;4127;47.908;10.850;2022-12-10T08:41:08;-0.20;99.90
8172;DHT22;4127;47.908;10.850;2022-12-10T08:43:35;-0.20;99.90
8172;DHT22;4127;47.908;10.850;2022-12-10T08:46:02;-0.20;99.90
8172;DHT22;4127;47.908;10.850;2022-12-10T08:48:30;-0.10;99.90
8172;DHT22;4127;47.908;10.850;2022-12-10T08:50:57;-0.20;99.90
8172;DHT22;4127;47.908;10.850;2022-12-10T08:53:24;-0.20;99.90
8172;DHT22;4127;47.908;10.850;2022-12-10T08:55:51;-0.10;99.90
8172;DHT22;4127;47.908;10.850;2022-12-10T08:58:19;-0.10;99.90
8172;DHT22;4127;47.908;10.850;2022-12-10T09:00:47;0.00;99.90
8172;DHT22;4127;47.908;10.850;2022-12-10T09:03:14;0.00;99.90
8172;DHT22;4127;47.908;10.850;2022-12-10T09:05:42;0.00;99.90
8172;DHT22;4127;47.908;10.850;2022-12-10T09:08:09;0.00;99.90
8172;DHT22;4127;47.908;10.850;2022-12-10T09:10:39;-0.10;99.90
8172;DHT22;4127;47.908;10.850;2022-12-10T09:13:07;0.00;99.90
8172;DHT22;4127;47.908;10.850;2022-12-10T09:15:33;0.00;99.90
8172;DHT22;4127;47.908;10.850;2022-12-10T09:18:00;0.10;99.90
8172;DHT22;4127;47.908;10.850;2022-12-10T09:20:27;0.20;99.90
8172;DHT22;4127;47.908;10.850;2022-12-10T09:22:54;0.20;99.90
8172;DHT22;4127;47.908;10.850;2022-12-10T09:25:21;0.20;99.90
8172;DHT22;4127;47.908;10.850;2022-12-10T09:27:48;0.20;99.90
8172;DHT22;4127;47.908;10.850;2022-12-10T09:30:15;0.10;99.90
8172;DHT22;4127;47.908;10.850;2022-12-10T09:32:42;0.20;99.90
8172;DHT22;4127;47.908;10.850;2022-12-10T09:35:09;0.20;99.90
8172;DHT22;4127;47.908;10.850;2022-12-10T09:37:36;0.10;99.90
8172;DHT22;4127;47.908;10.850;2022-12-10T09:40:03;0.20;99.90
8172;DHT22;4127;47.908;10.850;2022-12-10T09:42:53;0.20;99.90
8172;DHT22;4127;47.908;10.850;2022-12-10T09:45:32;0.20;99.90
8172;DHT22;4127;47.908;10.850;2022-12-10T09:48:20;0.30;99.90
8172;DHT22;4127;47.908;10.850;2022-12-10T09:50:55;0.30;99.90
8172;DHT22;4127;47.908;10.850;2022-12-10T09:53:25;0.40;99.90
8172;DHT22;4127;47.908;10.850;2022-12-10T09:55:53;0.40;99.90
8172;DHT22;4127;47.908;10.850;2022-12-10T09:58:22;0.40;99.90
8172;DHT22;4127;47.908;10.850;2022-12-10T10:01:02;0.40;99.90
8172;DHT22;4127;47.908;10.850;2022-12-10T10:03:38;0.40;99.90
8172;DHT22;4127;47.908;10.850;2022-12-10T10:06:14;0.30;99.90
8172;DHT22;4127;47.908;10.850;2022-12-10T10:08:45;0.30;99.90
8172;DHT22;4127;47.908;10.850;2022-12-10T10:11:20;0.30;99.90
8172;DHT22;4127;47.908;10.850;2022-12-10T10:13:52;0.30;99.90
8172;DHT22;4127;47.908;10.850;2022-12-10T10:16:45;0.40;99.90
8172;DHT22;4127;47.908;10.850;2022-12-10T10:19:17;0.40;99.90
8172;DHT22;4127;47.908;10.850;2022-12-10T10:21:48;0.40;99.90
8172;DHT22;4127;47.908;10.850;2022-12-10T10:24:19;0.40;99.90
8172;DHT22;4127;47.908;10.850;2022-12-10T10:26:47;0.40;99.90
8172;DHT22;4127;47.908;10.850;2022-12-10T10:29:18;0.20;99.90
8172;DHT22;4127;47.908;10.850;2022-12-10T10:31:45;0.20;99.90
8172;DHT22;4127;47.908;10.850;2022-12-10T10:34:21;0.20;99.90
8172;DHT22;4127;47.908;10.850;2022-12-10T10:36:57;0.20;99.90
8172;DHT22;4127;47.908;10.850;2022-12-10T10:39:29;0.30;99.90
8172;DHT22;4127;47.908;10.850;2022-12-10T10:41:58;0.20;99.90
8172;DHT22;4127;47.908;10.850;2022-12-10T10:44:28;0.30;99.90
8172;DHT22;4127;47.908;10.850;2022-12-10T10:46:59;0.40;99.90
8172;DHT22;4127;47.908;10.850;2022-12-10T10:49:31;0.50;99.90
8172;DHT22;4127;47.908;10.850;2022-12-10T10:52:04;0.40;99.90
8172;DHT22;4127;47.908;10.850;2022-12-10T10:54:34;0.40;99.90
8172;DHT22;4127;47.908;10.850;2022-12-10T10:57:11;0.30;99.90
8172;DHT22;4127;47.908;10.850;2022-12-10T10:59:38;0.30;99.90
8172;DHT22;4127;47.908;10.850;2022-12-10T11:02:20;0.30;99.90
8172;DHT22;4127;47.908;10.850;2022-12-10T11:04:52;0.10;99.90
8172;DHT22;4127;47.908;10.850;2022-12-10T11:09:49;0.30;99.90
8172;DHT22;4127;47.908;10.850;2022-12-10T11:12:34;0.20;99.90
8172;DHT22;4127;47.908;10.850;2022-12-10T11:15:02;0.20;99.90
8172;DHT22;4127;47.908;10.850;2022-12-10T11:17:29;0.20;99.90
8172;DHT22;4127;47.908;10.850;2022-12-10T11:20:15;0.20;99.90
8172;DHT22;4127;47.908;10.850;2022-12-10T11:23:01;0.20;99.90
8172;DHT22;4127;47.908;10.850;2022-12-10T11:31:55;0.10;99.90
8172;DHT22;4127;47.908;10.850;2022-12-10T11:40:06;0.20;99.90
8172;DHT22;4127;47.908;10.850;2022-12-10T11:42:41;0.30;99.90
8172;DHT22;4127;47.908;10.850;2022-12-10T11:50:56;0.10;99.90
8172;DHT22;4127;47.908;10.850;2022-12-10T11:59:04;0.20;99.90
8172;DHT22;4127;47.908;10.850;2022-12-10T12:04:46;0.20;99.90
8172;DHT22;4127;47.908;10.850;2022-12-10T12:15:33;0.00;99.90
8172;DHT22;4127;47.908;10.850;2022-12-10T12:18:06;-0.20;99.90
8172;DHT22;4127;47.908;10.850;2022-12-10T12:20:44;-0.20;99.90
8172;DHT22;4127;47.908;10.850;2022-12-10T12:23:33;-0.30;99.90
8172;DHT22;4127;47.908;10.850;2022-12-10T12:31:31;-0.10;99.90
8172;DHT22;4127;47.908;10.850;2022-12-10T12:37:35;-0.20;99.90
8172;DHT22;4127;47.908;10.850;2022-12-10T12:40:13;-0.20;99.90
8172;DHT22;4127;47.908;10.850;2022-12-10T12:45:21;-0.20;99.90
8172;DHT22;4127;47.908;10.850;2022-12-10T12:48:01;-0.10;99.90
8172;DHT22;4127;47.908;10.850;2022-12-10T12:50:51;-0.10;99.90
8172;DHT22;4127;47.908;10.850;2022-12-10T12:53:22;0.00;99.90
8172;DHT22;4127;47.908;10.850;2022-12-10T12:55:56;0.10;99.90
8172;DHT22;4127;47.908;10.850;2022-12-10T13:04:18;-0.20;99.90
8172;DHT22;4127;47.908;10.850;2022-12-10T13:17:37;0.10;99.90
8172;DHT22;4127;47.908;10.850;2022-12-10T13:22:59;0.10;99.90
8172;DHT22;4127;47.908;10.850;2022-12-10T13:29:10;0.00;99.90
8172;DHT22;4127;47.908;10.850;2022-12-10T13:31:33;-0.10;99.90
8172;DHT22;4127;47.908;10.850;2022-12-10T13:36:37;0.00;99.90
8172;DHT22;4127;47.908;10.850;2022-12-10T13:39:43;-0.10;99.90
8172;DHT22;4127;47.908;10.850;2022-12-10T13:45:04;-0.10;99.90
8172;DHT22;4127;47.908;10.850;2022-12-10T13:47:46;-0.20;99.90
8172;DHT22;4127;47.908;10.850;2022-12-10T13:50:20;-0.20;99.90
8172;DHT22;4127;47.908;10.850;2022-12-10T14:07:15;-0.20;99.90
8172;DHT22;4127;47.908;10.850;2022-12-10T14:09:50;-0.20;99.90
8172;DHT22;4127;47.908;10.850;2022-12-10T14:14:54;-0.10;99.90
8172;DHT22;4127;47.908;10.850;2022-12-10T14:17:43;-0.20;99.90
8172;DHT22;4127;47.908;10.850;2022-12-10T14:20:31;-0.20;99.90
8172;DHT22;4127;47.908;10.850;2022-12-10T14:23:04;-0.20;99.90
8172;DHT22;4127;47.908;10.850;2022-12-10T14:25:51;-0.20;99.90
8172;DHT22;4127;47.908;10.850;2022-12-10T14:28:19;-0.20;99.90
8172;DHT22;4127;47.908;10.850;2022-12-10T14:30:48;-0.30;99.90
8172;DHT22;4127;47.908;10.850;2022-12-10T14:33:17;-0.30;99.90
8172;DHT22;4127;47.908;10.850;2022-12-10T14:35:49;-0.20;99.90
8172;DHT22;4127;47.908;10.850;2022-12-10T14:38:28;-0.20;99.90
8172;DHT22;4127;47.908;10.850;2022-12-10T14:40:59;-0.20;99.90
8172;DHT22;4127;47.908;10.850;2022-12-10T14:43:38;-0.10;99.90
8172;DHT22;4127;47.908;10.850;2022-12-10T14:46:16;-0.20;99.90
8172;DHT22;4127;47.908;10.850;2022-12-10T14:48:44;-0.20;99.90
8172;DHT22;4127;47.908;10.850;2022-12-10T14:51:17;-0.30;99.90
8172;DHT22;4127;47.908;10.850;2022-12-10T14:53:46;-0.40;99.90
8172;DHT22;4127;47.908;10.850;2022-12-10T14:56:32;-0.50;99.90
8172;DHT22;4127;47.908;10.850;2022-12-10T14:59:20;-0.50;99.90
8172;DHT22;4127;47.908;10.850;2022-12-10T15:01:52;-0.40;99.90
8172;DHT22;4127;47.908;10.850;2022-12-10T15:04:20;-0.60;99.90
8172;DHT22;4127;47.908;10.850;2022-12-10T15:06:57;-0.70;99.90
8172;DHT22;4127;47.908;10.850;2022-12-10T15:09:25;-0.70;99.90
8172;DHT22;4127;47.908;10.850;2022-12-10T15:11:57;-0.70;99.90
8172;DHT22;4127;47.908;10.850;2022-12-10T15:14:26;-0.70;99.90
8172;DHT22;4127;47.908;10.850;2022-12-10T15:16:55;-0.80;99.90
8172;DHT22;4127;47.908;10.850;2022-12-10T15:24:42;-0.80;99.90
8172;DHT22;4127;47.908;10.850;2022-12-10T15:27:17;-0.80;99.90
8172;DHT22;4127;47.908;10.850;2022-12-10T15:29:48;-0.90;99.90
8172;DHT22;4127;47.908;10.850;2022-12-10T15:32:25;-0.90;99.90
8172;DHT22;4127;47.908;10.850;2022-12-10T15:37:25;-0.90;99.90
8172;DHT22;4127;47.908;10.850;2022-12-10T15:39:56;-1.00;99.90
8172;DHT22;4127;47.908;10.850;2022-12-10T15:47:43;-1.10;99.90
8172;DHT22;4127;47.908;10.850;2022-12-10T15:50:10;-1.00;99.90
8172;DHT22;4127;47.908;10.850;2022-12-10T15:52:37;-1.00;99.90
8172;DHT22;4127;47.908;10.850;2022-12-10T15:55:05;-1.00;99.90
8172;DHT22;4127;47.908;10.850;2022-12-10T15:57:37;-1.00;99.90
8172;DHT22;4127;47.908;10.850;2022-12-10T16:00:08;-0.90;99.90
8172;DHT22;4127;47.908;10.850;2022-12-10T16:02:57;-0.90;99.90
8172;DHT22;4127;47.908;10.850;2022-12-10T16:05:27;-0.80;99.90
8172;DHT22;4127;47.908;10.850;2022-12-10T16:08:13;-0.80;99.90
8172;DHT22;4127;47.908;10.850;2022-12-10T16:10:43;-1.00;99.90
8172;DHT22;4127;47.908;10.850;2022-12-10T16:13:23;-1.10;99.90
8172;DHT22;4127;47.908;10.850;2022-12-10T16:15:57;-1.10;99.90
8172;DHT22;4127;47.908;10.850;2022-12-10T16:18:25;-1.20;99.90
8172;DHT22;4127;47.908;10.850;2022-12-10T16:20:59;-1.30;99.90
8172;DHT22;4127;47.908;10.850;2022-12-10T16:23:25;-1.20;99.90
8172;DHT22;4127;47.908;10.850;2022-12-10T16:25:52;-1.20;99.90
8172;DHT22;4127;47.908;10.850;2022-12-10T16:28:21;-1.20;99.90
8172;DHT22;4127;47.908;10.850;2022-12-10T16:30:53;-1.10;99.90
8172;DHT22;4127;47.908;10.850;2022-12-10T16:33:22;-1.10;99.90
8172;DHT22;4127;47.908;10.850;2022-12-10T16:35:51;-1.00;99.90
8172;DHT22;4127;47.908;10.850;2022-12-10T16:38:18;-1.00;99.90
8172;DHT22;4127;47.908;10.850;2022-12-10T16:40:46;-1.00;99.90
8172;DHT22;4127;47.908;10.850;2022-12-10T16:43:21;-1.00;99.90
8172;DHT22;4127;47.908;10.850;2022-12-10T16:45:50;-1.00;99.90
8172;DHT22;4127;47.908;10.850;2022-12-10T16:48:17;-1.00;99.90
8172;DHT22;4127;47.908;10.850;2022-12-10T16:50:45;-1.00;99.90
8172;DHT22;4127;47.908;10.850;2022-12-10T16:53:29;-1.00;99.90
8172;DHT22;4127;47.908;10.850;2022-12-10T16:55:57;-1.00;99.90
8172;DHT22;4127;47.908;10.850;2022-12-10T16:58:24;-1.00;99.90
8172;DHT22;4127;47.908;10.850;2022-12-10T17:00:53;-1.00;99.90
8172;DHT22;4127;47.908;10.850;2022-12-10T17:03:23;-1.10;99.90
8172;DHT22;4127;47.908;10.850;2022-12-10T17:05:56;-1.10;99.90
8172;DHT22;4127;47.908;10.850;2022-12-10T17:08:24;-1.10;99.90
8172;DHT22;4127;47.908;10.850;2022-12-10T17:10:52;-1.10;99.90
8172;DHT22;4127;47.908;10.850;2022-12-10T17:13:39;-1.10;99.90
8172;DHT22;4127;47.908;10.850;2022-12-10T17:16:11;-1.10;99.90
8172;DHT22;4127;47.908;10.850;2022-12-10T17:18:40;-1.10;99.90
8172;DHT22;4127;47.908;10.850;2022-12-10T17:21:07;-1.20;99.90
8172;DHT22;4127;47.908;10.850;2022-12-10T17:23:33;-1.30;99.90
8172;DHT22;4127;47.908;10.850;2022-12-10T17:26:00;-1.30;99.90
8172;DHT22;4127;47.908;10.850;2022-12-10T17:28:27;-1.30;99.90
8172;DHT22;4127;47.908;10.850;2022-12-10T17:30:54;-1.20;99.90
8172;DHT22;4127;47.908;10.850;2022-12-10T17:33:22;-1.30;99.90
8172;DHT22;4127;47.908;10.850;2022-12-10T17:35:51;-1.30;99.90
8172;DHT22;4127;47.908;10.850;2022-12-10T17:38:21;-1.40;99.90
8172;DHT22;4127;47.908;10.850;2022-12-10T17:40:48;-1.40;99.90
8172;DHT22;4127;47.908;10.850;2022-12-10T17:43:14;-1.40;99.90
8172;DHT22;4127;47.908;10.850;2022-12-10T17:45:43;-1.40;99.90
8172;DHT22;4127;47.908;10.850;2022-12-10T17:48:15;-1.40;99.90
8172;DHT22;4127;47.908;10.850;2022-12-10T17:50:43;-1.50;99.90
8172;DHT22;4127;47.908;10.850;2022-12-10T17:53:12;-1.40;99.90
8172;DHT22;4127;47.908;10.850;2022-12-10T17:55:44;-1.40;99.90
8172;DHT22;4127;47.908;10.850;2022-12-10T17:58:14;-1.40;99.90
8172;DHT22;4127;47.908;10.850;2022-12-10T18:00:42;-1.30;99.90
8172;DHT22;4127;47.908;10.850;2022-12-10T18:03:10;-1.30;99.90
8172;DHT22;4127;47.908;10.850;2022-12-10T18:05:37;-1.20;99.90
8172;DHT22;4127;47.908;10.850;2022-12-10T18:08:04;-1.20;99.90
8172;DHT22;4127;47.908;10.850;2022-12-10T18:10:32;-1.20;99.90
8172;DHT22;4127;47.908;10.850;2022-12-10T18:13:00;-1.10;99.90
8172;DHT22;4127;47.908;10.850;2022-12-10T18:15:28;-1.10;99.90
8172;DHT22;4127;47.908;10.850;2022-12-10T18:17:55;-1.10;99.90
8172;DHT22;4127;47.908;10.850;2022-12-10T18:20:27;-1.10;99.90
8172;DHT22;4127;47.908;10.850;2022-12-10T18:22:54;-1.10;99.90